Time;durP1;ratioP1;P1;durP2;ratioP2;P2;SDS_P1;SDS_P2;PMS_P1;PMS_P2;Temp;Humidity;BMP_temperature;BMP_pressure;BME280_temperature;BME280_humidity;BME280_pressure;Samples;Min_cycle;Max_cycle;Signal;HPM_P1;HPM_P2
2022/09/20 00:00:42;;;;;;;3.00;2.47;;;10.90;99.90;;;;;;6240350;23;20873;-52
2022/09/20 00:03:09;;;;;;;4.23;3.30;;;10.90;99.90;;;;;;6241171;23;20364;-51
2022/09/20 00:05:36;;;;;;;3.47;3.17;;;10.80;99.90;;;;;;6240487;23;20379;-50
2022/09/20 00:08:03;;;;;;;4.40;3.20;;;10.80;99.90;;;;;;6241348;23;20370;-49
2022/09/20 00:10:33;;;;;;;5.03;2.90;;;10.80;99.90;;;;;;6241094;23;20390;-51
2022/09/20 00:12:58;;;;;;;4.93;3.40;;;10.80;99.90;;;;;;6241007;23;20407;-48
2022/09/20 00:15:24;;;;;;;4.20;3.03;;;10.80;99.90;;;;;;6240799;23;20365;-52
2022/09/20 00:17:50;;;;;;;3.90;2.93;;;10.80;99.90;;;;;;6241139;23;20146;-52
2022/09/20 00:20:15;;;;;;;4.60;2.97;;;10.80;99.90;;;;;;6238697;23;20452;-52
2022/09/20 00:22:41;;;;;;;5.00;2.80;;;10.80;99.90;;;;;;6240383;23;20193;-52
2022/09/20 00:25:07;;;;;;;3.30;2.33;;;10.70;99.90;;;;;;6214061;23;20450;-52
2022/09/20 00:27:33;;;;;;;2.80;2.13;;;10.70;99.90;;;;;;6240643;23;20141;-52
2022/09/20 00:29:58;;;;;;;2.57;1.60;;;10.60;99.90;;;;;;6240711;23;21193;-54
2022/09/20 00:32:24;;;;;;;1.77;1.40;;;10.50;99.90;;;;;;6240794;23;20193;-54
2022/09/20 00:35:09;;;;;;;2.20;1.37;;;10.40;99.90;;;;;;6240737;23;20564;-50
2022/09/20 00:37:39;;;;;;;3.00;1.43;;;10.40;99.90;;;;;;6240419;23;20138;-52
2022/09/20 00:40:11;;;;;;;2.00;1.60;;;10.40;99.90;;;;;;6240578;23;20371;-49
2022/09/20 00:42:37;;;;;;;2.63;1.50;;;10.30;99.90;;;;;;6240755;23;20443;-48
2022/09/20 00:45:19;;;;;;;2.27;1.50;;;10.30;99.90;;;;;;6241292;23;20888;-50
2022/09/20 00:48:00;;;;;;;1.97;1.43;;;10.20;99.90;;;;;;6239969;23;20426;-50
2022/09/20 00:50:38;;;;;;;3.67;1.57;;;10.20;99.90;;;;;;6239707;23;20384;-47
2022/09/20 00:53:20;;;;;;;2.40;1.40;;;10.10;99.90;;;;;;6240172;23;20485;-54
2022/09/20 00:55:54;;;;;;;3.67;1.70;;;10.10;99.90;;;;;;6241009;23;20394;-53
2022/09/20 00:58:21;;;;;;;2.50;1.37;;;10.10;99.90;;;;;;6240736;23;20364;-52
2022/09/20 01:00:49;;;;;;;2.83;1.70;;;10.10;99.90;;;;;;6240516;23;20415;-49
2022/09/20 01:03:19;;;;;;;2.20;1.70;;;10.10;99.90;;;;;;6240250;23;20404;-49
2022/09/20 01:05:45;;;;;;;2.80;1.63;;;10.10;99.90;;;;;;6240426;23;20425;-50
2022/09/20 01:08:11;;;;;;;3.30;1.63;;;10.10;99.90;;;;;;6240392;23;20376;-52
2022/09/20 01:10:37;;;;;;;2.90;1.70;;;10.10;99.90;;;;;;6240532;23;20403;-52
2022/09/20 01:13:04;;;;;;;2.50;1.90;;;10.20;99.90;;;;;;6240833;23;20484;-49
2022/09/20 01:15:31;;;;;;;2.47;2.03;;;10.10;99.90;;;;;;6240577;23;20415;-48
2022/09/20 01:18:00;;;;;;;2.20;1.70;;;10.10;99.90;;;;;;6239241;23;20365;-50
2022/09/20 01:20:30;;;;;;;2.90;1.70;;;10.10;99.90;;;;;;6239771;23;20376;-52
2022/09/20 01:23:15;;;;;;;3.50;2.00;;;10.20;99.90;;;;;;6240389;23;20372;-47
2022/09/20 01:26:04;;;;;;;5.73;2.07;;;10.20;99.90;;;;;;6240504;23;20364;-48
2022/09/20 01:28:30;;;;;;;4.60;2.40;;;10.20;99.90;;;;;;6238986;23;20360;-52
2022/09/20 01:31:15;;;;;;;3.33;2.10;;;10.20;99.90;;;;;;6239636;23;20441;-49
2022/09/20 01:33:58;;;;;;;4.13;2.77;;;10.20;99.90;;;;;;6241406;23;20523;-51
2022/09/20 01:36:44;;;;;;;3.07;2.43;;;10.20;99.90;;;;;;6241924;23;20360;-50
2022/09/20 01:39:14;;;;;;;3.63;3.10;;;10.30;99.90;;;;;;6242676;23;20356;-50
2022/09/20 01:41:59;;;;;;;3.83;3.17;;;10.30;99.90;;;;;;6242462;23;20368;-53
2022/09/20 01:44:36;;;;;;;8.40;3.37;;;10.30;99.90;;;;;;6242416;23;20368;-52
2022/09/20 01:47:11;;;;;;;4.70;3.07;;;10.40;99.90;;;;;;6241715;23;20360;-52
2022/09/20 01:49:56;;;;;;;5.00;3.70;;;10.40;99.90;;;;;;6241976;23;20371;-50
2022/09/20 01:52:39;;;;;;;4.90;3.70;;;10.40;99.90;;;;;;6241653;23;20423;-50
2022/09/20 01:55:24;;;;;;;4.23;3.50;;;10.40;99.90;;;;;;6241462;23;20812;-50
2022/09/20 01:58:11;;;;;;;7.00;3.37;;;10.30;99.90;;;;;;6241084;23;20372;-54
2022/09/20 02:01:13;;;;;;;4.73;3.63;;;10.30;99.90;;;;;;6242365;23;20376;-50
2022/09/20 02:04:03;;;;;;;6.50;3.83;;;10.40;99.90;;;;;;6241649;23;20375;-51
2022/09/20 02:06:57;;;;;;;4.60;3.27;;;10.40;99.90;;;;;;6242103;23;20752;-50
2022/09/20 02:09:52;;;;;;;7.47;3.67;;;10.40;99.90;;;;;;6242126;23;20465;-52
2022/09/20 02:12:48;;;;;;;5.30;4.30;;;10.40;99.90;;;;;;6181884;23;20440;-49
2022/09/20 02:15:22;;;;;;;5.73;4.00;;;10.40;99.90;;;;;;6241836;23;20388;-51
2022/09/20 02:18:25;;;;;;;4.60;4.10;;;10.50;99.90;;;;;;6241586;23;20368;-52
2022/09/20 02:21:24;;;;;;;5.90;4.40;;;10.40;99.90;;;;;;6241892;23;20368;-53
2022/09/20 02:24:15;;;;;;;5.17;4.53;;;10.50;99.90;;;;;;6241530;23;20691;-51
2022/09/20 02:27:11;;;;;;;6.50;3.90;;;10.50;99.90;;;;;;6241300;23;20412;-53
2022/09/20 02:29:51;;;;;;;4.60;4.20;;;10.50;99.90;;;;;;6241180;23;20408;-51
2022/09/20 02:32:28;;;;;;;5.10;4.13;;;10.50;99.90;;;;;;6240679;23;20916;-50
2022/09/20 02:35:12;;;;;;;6.43;4.67;;;10.50;99.90;;;;;;6241746;23;20414;-51
2022/09/20 02:37:50;;;;;;;5.23;4.60;;;10.60;99.90;;;;;;6241702;23;20364;-50
2022/09/20 02:40:16;;;;;;;5.27;4.67;;;10.60;99.90;;;;;;6241285;23;20671;-48
2022/09/20 02:42:56;;;;;;;6.10;5.40;;;10.60;99.90;;;;;;6241190;23;20353;-53
2022/09/20 02:45:40;;;;;;;6.37;4.23;;;10.60;99.90;;;;;;6241354;23;20223;-49
2022/09/20 02:48:06;;;;;;;6.37;4.60;;;10.60;99.90;;;;;;6241672;23;20386;-49
2022/09/20 02:50:37;;;;;;;6.63;4.90;;;10.60;99.90;;;;;;6240836;23;20380;-47
2022/09/20 02:53:33;;;;;;;5.37;4.33;;;10.60;99.90;;;;;;6242012;23;20431;-49
2022/09/20 02:56:26;;;;;;;5.20;4.40;;;10.60;99.90;;;;;;6241673;23;20357;-48
2022/09/20 02:59:30;;;;;;;7.50;4.37;;;10.60;99.90;;;;;;6242029;23;20365;-46
2022/09/20 03:02:18;;;;;;;4.63;4.13;;;10.50;99.90;;;;;;6241635;23;20391;-48
2022/09/20 03:05:00;;;;;;;6.60;4.50;;;10.50;99.90;;;;;;6241448;23;20399;-46
2022/09/20 03:07:57;;;;;;;5.40;4.60;;;10.50;99.90;;;;;;6241560;23;20352;-51
2022/09/20 03:10:37;;;;;;;6.53;4.63;;;10.50;99.90;;;;;;6241505;23;20727;-50
2022/09/20 03:13:27;;;;;;;4.77;4.27;;;10.50;99.90;;;;;;6241702;23;20549;-51
2022/09/20 03:16:14;;;;;;;5.30;4.30;;;10.50;99.90;;;;;;6241217;23;20380;-50
2022/09/20 03:18:51;;;;;;;4.53;4.13;;;10.50;99.90;;;;;;6240861;23;20369;-49
2022/09/20 03:21:44;;;;;;;5.20;4.13;;;10.50;99.90;;;;;;6241571;23;20359;-52
2022/09/20 03:24:43;;;;;;;7.30;4.53;;;10.50;99.90;;;;;;6240602;23;20352;-53
2022/09/20 03:27:18;;;;;;;6.20;4.90;;;10.50;99.90;;;;;;6241509;23;20750;-50
2022/09/20 03:30:20;;;;;;;7.03;5.40;;;10.50;99.90;;;;;;6240711;23;20957;-49
2022/09/20 03:33:06;;;;;;;5.17;4.67;;;10.50;99.90;;;;;;6240833;23;20447;-47
2022/09/20 03:35:41;;;;;;;7.77;4.67;;;10.50;99.90;;;;;;6241116;23;20364;-47
2022/09/20 03:38:42;;;;;;;8.23;5.60;;;10.50;99.90;;;;;;6240895;23;20844;-49
2022/09/20 03:41:16;;;;;;;6.67;5.40;;;10.50;99.90;;;;;;6241005;23;20356;-49
2022/09/20 03:44:01;;;;;;;4.90;4.43;;;10.40;99.90;;;;;;6241744;23;20384;-51
2022/09/20 03:46:28;;;;;;;5.80;5.00;;;10.40;99.90;;;;;;6241152;23;20494;-49
2022/09/20 03:48:54;;;;;;;5.17;4.30;;;10.40;99.90;;;;;;6242020;23;20353;-48
2022/09/20 03:51:47;;;;;;;9.40;5.37;;;10.50;99.90;;;;;;6239871;23;20356;-52
2022/09/20 03:54:41;;;;;;;6.67;5.30;;;10.50;99.90;;;;;;6240231;23;20542;-51
2022/09/20 03:57:22;;;;;;;8.13;4.77;;;10.50;99.90;;;;;;6241402;23;20448;-52
2022/09/20 04:00:25;;;;;;;6.83;6.13;;;10.40;99.90;;;;;;6241063;23;20360;-49
2022/09/20 04:03:25;;;;;;;6.80;4.60;;;10.40;99.90;;;;;;6207708;23;20719;-51
2022/09/20 04:06:09;;;;;;;6.10;5.50;;;10.40;99.90;;;;;;6206902;23;20456;-54
2022/09/20 04:08:50;;;;;;;6.73;4.63;;;10.40;99.90;;;;;;6206571;23;20914;-50
2022/09/20 04:11:31;;;;;;;5.10;4.40;;;10.40;99.90;;;;;;6204986;23;20464;-49
2022/09/20 04:14:37;;;;;;;7.03;5.03;;;10.40;99.90;;;;;;6206543;23;20440;-50
2022/09/20 04:17:23;;;;;;;6.73;4.03;;;10.40;99.90;;;;;;6202969;23;20373;-49
2022/09/20 04:20:06;;;;;;;5.60;4.90;;;10.30;99.90;;;;;;6198276;23;20381;-51
2022/09/20 04:22:32;;;;;;;6.27;4.97;;;10.30;99.90;;;;;;6197106;23;20516;-52
2022/09/20 04:25:03;;;;;;;5.53;4.20;;;10.30;99.90;;;;;;6196964;23;20378;-52
2022/09/20 04:27:38;;;;;;;9.80;7.47;;;10.30;99.90;;;;;;6197835;23;21371;-51
2022/09/20 04:30:11;;;;;;;22.53;19.30;;;10.30;99.90;;;;;;6198018;23;20380;-52
2022/09/20 04:32:59;;;;;;;12.07;10.27;;;10.40;99.90;;;;;;6197703;23;20563;-52
2022/09/20 04:38:39;;;;;;;10.10;5.70;;;10.40;99.90;;;;;;6207679;23;20704;-49
2022/09/20 04:41:20;;;;;;;7.57;6.20;;;10.40;99.90;;;;;;6230370;23;20408;-54
2022/09/20 04:44:16;;;;;;;9.43;6.50;;;10.40;99.90;;;;;;6230986;23;20357;-48
2022/09/20 04:46:57;;;;;;;13.70;8.00;;;10.40;99.90;;;;;;6233620;23;20368;-49
2022/09/20 04:49:46;;;;;;;11.53;7.10;;;10.40;99.90;;;;;;6237270;23;20803;-48
2022/09/20 04:52:43;;;;;;;12.13;7.40;;;10.40;99.90;;;;;;6192918;23;20471;-46
2022/09/20 04:55:43;;;;;;;12.17;7.80;;;10.40;99.90;;;;;;6240231;23;20815;-50
2022/09/20 04:58:39;;;;;;;9.60;7.73;;;10.40;99.90;;;;;;6240469;23;20395;-49
2022/09/20 05:01:42;;;;;;;15.33;9.10;;;10.40;99.90;;;;;;6239593;23;20519;-52
2022/09/20 05:05:06;;;;;;;12.00;9.67;;;10.40;99.90;;;;;;6239452;23;20442;-49
2022/09/20 05:07:59;;;;;;;14.87;10.10;;;10.50;99.90;;;;;;6158828;23;20426;-51
2022/09/20 05:11:03;;;;;;;14.73;8.37;;;10.40;99.90;;;;;;6242650;23;20361;-48
2022/09/20 05:13:53;;;;;;;13.10;8.90;;;10.50;99.90;;;;;;6242938;23;20806;-53
2022/09/20 05:16:23;;;;;;;17.70;9.13;;;10.50;99.90;;;;;;6243013;23;20372;-54
2022/09/20 05:19:16;;;;;;;10.77;8.07;;;10.50;99.90;;;;;;6242725;23;20376;-49
2022/09/20 05:22:00;;;;;;;13.80;9.30;;;10.50;99.90;;;;;;6242984;23;20479;-48
2022/09/20 05:25:01;;;;;;;10.40;7.70;;;10.50;99.90;;;;;;6243250;23;20360;-51
2022/09/20 05:27:59;;;;;;;8.40;6.30;;;10.50;99.90;;;;;;6240385;23;20391;-49
2022/09/20 05:30:36;;;;;;;11.37;7.30;;;10.50;99.90;;;;;;6230052;23;20387;-53
2022/09/20 05:33:04;;;;;;;9.53;7.20;;;10.60;99.90;;;;;;6215829;23;20447;-53
2022/09/20 05:35:48;;;;;;;10.37;7.00;;;10.60;99.90;;;;;;6243175;23;20363;-48
2022/09/20 05:38:41;;;;;;;12.00;8.00;;;10.50;99.90;;;;;;6243325;23;20799;-51
2022/09/20 05:41:17;;;;;;;9.10;6.60;;;10.60;99.90;;;;;;6242395;23;20368;-53
2022/09/20 05:44:11;;;;;;;7.83;6.00;;;10.60;99.90;;;;;;6242274;23;20400;-49
2022/09/20 05:47:04;;;;;;;10.97;7.37;;;10.70;99.90;;;;;;6242668;23;20363;-49
2022/09/20 05:49:57;;;;;;;8.27;6.47;;;10.60;99.90;;;;;;6242856;23;20357;-49
2022/09/20 05:52:47;;;;;;;8.77;6.90;;;10.60;99.90;;;;;;6242550;23;20430;-48
2022/09/20 05:55:27;;;;;;;9.70;6.13;;;10.50;99.90;;;;;;6242877;23;20356;-53
2022/09/20 05:58:23;;;;;;;9.40;6.67;;;10.50;99.90;;;;;;6230428;23;20360;-49
2022/09/20 06:01:06;;;;;;;11.10;6.77;;;10.50;99.90;;;;;;6242751;23;20486;-52
2022/09/20 06:03:47;;;;;;;10.87;6.90;;;10.50;99.90;;;;;;6242636;23;20373;-51
2022/09/20 06:06:29;;;;;;;9.47;7.30;;;10.50;99.90;;;;;;6243045;23;20376;-49
2022/09/20 06:08:58;;;;;;;8.87;6.30;;;10.50;99.90;;;;;;6242793;23;20369;-50
2022/09/20 06:11:53;;;;;;;8.40;6.97;;;10.60;99.90;;;;;;6243015;23;20390;-51
2022/09/20 06:15:00;;;;;;;9.90;7.07;;;10.60;99.90;;;;;;6242060;23;20404;-50
2022/09/20 06:17:54;;;;;;;11.40;7.27;;;10.70;99.90;;;;;;6211594;23;20482;-49
2022/09/20 06:20:27;;;;;;;10.33;7.27;;;10.70;99.90;;;;;;6242274;23;20361;-51
2022/09/20 06:22:55;;;;;;;10.37;6.97;;;10.60;99.90;;;;;;6242679;23;20389;-49
2022/09/20 06:26:01;;;;;;;11.73;7.60;;;10.70;99.90;;;;;;6242650;23;20388;-53
2022/09/20 06:28:36;;;;;;;12.90;7.83;;;10.70;99.90;;;;;;6241355;23;20399;-50
2022/09/20 06:31:07;;;;;;;11.10;7.87;;;10.70;99.90;;;;;;6242635;23;20364;-53
2022/09/20 06:33:43;;;;;;;13.90;8.37;;;10.70;99.90;;;;;;6242335;23;20910;-53
2022/09/20 06:42:31;;;;;;;13.80;8.10;;;10.80;99.90;;;;;;6206982;23;20396;-52
2022/09/20 06:44:56;;;;;;;11.40;8.27;;;10.80;99.90;;;;;;6239555;23;20806;-51
2022/09/20 06:47:22;;;;;;;10.20;8.33;;;10.80;99.90;;;;;;6215473;23;20642;-50
2022/09/20 06:49:48;;;;;;;12.43;7.90;;;10.80;99.90;;;;;;6242469;23;20142;-48
2022/09/20 06:52:20;;;;;;;10.20;7.60;;;10.90;99.90;;;;;;6240836;23;20554;-53
2022/09/20 06:54:49;;;;;;;12.20;6.70;;;11.00;99.90;;;;;;6242208;23;20395;-51
2022/09/20 06:57:18;;;;;;;8.60;7.30;;;11.10;99.90;;;;;;6242396;23;20463;-47
2022/09/20 06:59:44;;;;;;;12.60;7.57;;;11.30;99.90;;;;;;6242268;23;20356;-47
2022/09/20 07:02:10;;;;;;;10.23;7.00;;;11.30;99.90;;;;;;6242116;23;20851;-50
2022/09/20 07:04:36;;;;;;;9.83;7.00;;;11.40;99.90;;;;;;6211956;23;20393;-45
2022/09/20 07:07:07;;;;;;;9.67;7.00;;;11.40;99.90;;;;;;6242265;23;20276;-49
2022/09/20 07:09:33;;;;;;;7.93;6.33;;;11.50;99.90;;;;;;6242169;23;20353;-51
2022/09/20 07:11:58;;;;;;;7.97;6.63;;;11.60;99.90;;;;;;6241666;23;20866;-47
2022/09/20 07:14:25;;;;;;;8.27;6.37;;;11.70;99.90;;;;;;6241937;23;20447;-50
2022/09/20 07:16:52;;;;;;;9.43;6.73;;;11.90;99.90;;;;;;6241298;23;20144;-47
2022/09/20 07:19:17;;;;;;;8.33;6.60;;;12.00;99.90;;;;;;6241579;23;20514;-46
2022/09/20 07:21:43;;;;;;;9.33;6.73;;;12.10;99.90;;;;;;6242012;23;20361;-50
2022/09/20 07:24:08;;;;;;;7.33;6.20;;;12.10;99.90;;;;;;6241795;23;20149;-50
2022/09/20 07:26:34;;;;;;;9.80;6.77;;;12.10;99.90;;;;;;6242076;23;20157;-52
2022/09/20 07:29:00;;;;;;;8.07;6.80;;;12.20;99.90;;;;;;6241634;23;20501;-50
2022/09/20 07:31:28;;;;;;;7.63;6.13;;;12.20;99.90;;;;;;6241856;23;20145;-47
2022/09/20 07:33:54;;;;;;;7.73;6.47;;;12.20;85.50;;;;;;6241750;23;20446;-51
2022/09/20 07:36:20;;;;;;;8.03;6.57;;;12.20;94.10;;;;;;6241771;23;20683;-49
2022/09/20 07:38:47;;;;;;;10.83;6.63;;;12.10;94.40;;;;;;6241870;23;20372;-50
2022/09/20 07:41:13;;;;;;;8.67;7.10;;;12.10;99.90;;;;;;6241153;23;20463;-47
2022/09/20 07:43:39;;;;;;;7.40;6.20;;;12.10;90.10;;;;;;6241794;23;20404;-50
2022/09/20 07:46:05;;;;;;;11.33;6.83;;;12.00;83.30;;;;;;6241796;23;20157;-48
2022/09/20 07:48:32;;;;;;;12.33;7.40;;;12.00;90.70;;;;;;6241813;23;20160;-51
2022/09/20 07:51:02;;;;;;;10.00;7.07;;;12.00;91.20;;;;;;6241728;23;20814;-50
2022/09/20 07:53:28;;;;;;;9.50;7.40;;;11.90;91.70;;;;;;6241779;23;20430;-49
2022/09/20 07:55:58;;;;;;;9.63;7.33;;;11.90;95.20;;;;;;6241490;23;20422;-50
2022/09/20 07:58:23;;;;;;;11.97;7.90;;;11.80;99.90;;;;;;6214527;23;20390;-49
2022/09/20 08:01:00;;;;;;;10.53;7.77;;;11.70;99.90;;;;;;6241471;23;20792;-49
2022/09/20 08:03:27;;;;;;;16.00;8.70;;;11.60;99.90;;;;;;6241599;23;20148;-49
2022/09/20 08:06:02;;;;;;;14.37;8.50;;;11.60;99.90;;;;;;6241428;23;20388;-50
2022/09/20 08:08:31;;;;;;;12.43;8.93;;;11.80;99.90;;;;;;6240454;23;20368;-50
2022/09/20 08:11:05;;;;;;;10.83;8.07;;;11.90;99.90;;;;;;6240652;23;20434;-51
2022/09/20 08:13:38;;;;;;;14.27;8.40;;;12.00;99.90;;;;;;6241359;23;20427;-45
2022/09/20 08:16:06;;;;;;;11.13;8.50;;;12.10;99.90;;;;;;6241675;23;20514;-45
2022/09/20 08:18:33;;;;;;;11.33;8.67;;;12.20;99.90;;;;;;6241993;23;20357;-46
2022/09/20 08:21:05;;;;;;;11.33;9.30;;;12.20;99.90;;;;;;6241510;23;20376;-48
2022/09/20 08:23:39;;;;;;;11.00;8.63;;;12.30;99.90;;;;;;6241306;23;20885;-45
2022/09/20 08:26:05;;;;;;;14.50;9.13;;;12.50;80.40;;;;;;6241543;23;20775;-48
2022/09/20 08:28:32;;;;;;;13.43;9.57;;;12.40;60.60;;;;;;6241271;23;20774;-53
2022/09/20 08:31:19;;;;;;;12.40;9.37;;;12.30;66.20;;;;;;6241376;23;20361;-46
2022/09/20 08:33:46;;;;;;;10.30;8.77;;;12.30;72.30;;;;;;6240837;23;21108;-48
2022/09/20 08:36:14;;;;;;;11.57;8.90;;;12.30;88.90;;;;;;6241300;23;20408;-52
2022/09/20 08:38:40;;;;;;;13.40;9.27;;;12.40;96.00;;;;;;6240752;23;20411;-50
2022/09/20 08:41:09;;;;;;;16.07;8.30;;;12.50;83.90;;;;;;6240824;23;20361;-49
2022/09/20 08:43:39;;;;;;;10.53;8.33;;;12.50;62.40;;;;;;6241279;23;20380;-53
2022/09/20 08:46:08;;;;;;;11.13;8.30;;;12.50;63.90;;;;;;6241052;23;21025;-47
2022/09/20 08:48:34;;;;;;;11.37;8.53;;;12.50;70.00;;;;;;6241266;23;20366;-51
2022/09/20 08:51:05;;;;;;;10.50;8.07;;;12.50;59.00;;;;;;6241154;23;20392;-49
2022/09/20 08:53:32;;;;;;;10.60;7.83;;;12.40;66.70;;;;;;6241277;23;20260;-50
2022/09/20 08:55:58;;;;;;;10.90;8.77;;;12.60;73.80;;;;;;6241420;23;20389;-48
2022/09/20 08:58:26;;;;;;;10.70;8.60;;;12.80;71.30;;;;;;6241071;23;20828;-48
2022/09/20 09:00:53;;;;;;;11.97;9.03;;;13.10;48.60;;;;;;6241104;23;20788;-47
2022/09/20 09:03:18;;;;;;;9.57;8.17;;;13.40;16.70;;;;;;6241128;23;20374;-48
2022/09/20 09:05:50;;;;;;;9.53;7.40;;;13.70;1.00;;;;;;6240819;23;20375;-51
2022/09/20 09:08:23;;;;;;;9.40;7.87;;;14.20;23.70;;;;;;6240193;23;20166;-51
2022/09/20 09:10:57;;;;;;;7.40;6.67;;;14.60;1.00;;;;;;6240385;23;20860;-50
2022/09/20 09:13:35;;;;;;;6.57;5.50;;;14.80;1.00;;;;;;6241160;23;20876;-51
2022/09/20 09:16:11;;;;;;;6.80;6.00;;;14.90;1.00;;;;;;6240477;23;20862;-50
2022/09/20 09:18:39;;;;;;;7.97;6.10;;;14.60;1.00;;;;;;6240527;23;20983;-48
2022/09/20 09:21:09;;;;;;;6.23;5.40;;;14.50;1.00;;;;;;6240908;23;20417;-46
2022/09/20 09:23:40;;;;;;;6.97;5.37;;;14.40;1.00;;;;;;6214190;23;20388;-49
2022/09/20 09:26:15;;;;;;;7.07;5.50;;;14.40;1.00;;;;;;6240716;23;20698;-48
2022/09/20 09:28:40;;;;;;;5.90;5.20;;;14.50;1.00;;;;;;6240747;23;20878;-50
2022/09/20 09:31:32;;;;;;;7.30;5.37;;;14.50;1.00;;;;;;6241298;23;20376;-47
2022/09/20 09:33:58;;;;;;;6.97;5.90;;;14.50;1.00;;;;;;6210749;23;20278;-53
2022/09/20 09:36:25;;;;;;;7.17;5.37;;;14.60;1.00;;;;;;6241228;23;20357;-49
2022/09/20 09:39:12;;;;;;;7.43;5.80;;;14.70;1.00;;;;;;6240924;23;20170;-51
2022/09/20 09:41:38;;;;;;;6.80;6.17;;;14.80;1.00;;;;;;6240698;23;20447;-50
2022/09/20 09:44:08;;;;;;;8.13;5.17;;;14.70;1.00;;;;;;6241011;23;20357;-51
2022/09/20 09:46:35;;;;;;;7.00;4.80;;;14.90;99.90;;;;;;6240682;23;20134;-50
2022/09/20 09:49:17;;;;;;;6.40;5.80;;;15.00;99.90;;;;;;6240764;23;20373;-49
2022/09/20 09:52:05;;;;;;;6.93;5.53;;;15.00;99.90;;;;;;6241141;23;20384;-50
2022/09/20 09:54:40;;;;;;;6.53;5.70;;;15.00;99.90;;;;;;6242777;23;20750;-53
2022/09/20 09:57:05;;;;;;;5.40;4.87;;;15.40;1.00;;;;;;6242418;23;20664;-52
2022/09/20 09:59:39;;;;;;;6.17;5.50;;;16.50;1.00;;;;;;6241452;23;20422;-49
2022/09/20 10:02:32;;;;;;;7.07;5.70;;;17.50;1.00;;;;;;6242612;23;20469;-52
2022/09/20 10:05:04;;;;;;;8.00;6.30;;;18.00;1.00;;;;;;6242604;23;20345;-51
2022/09/20 10:07:41;;;;;;;6.43;5.77;;;18.20;99.90;;;;;;6215563;23;20380;-50
2022/09/20 10:10:32;;;;;;;6.00;5.50;;;18.20;99.90;;;;;;6242986;23;20434;-50
2022/09/20 10:13:29;;;;;;;6.10;5.60;;;17.80;99.90;;;;;;6242839;23;20481;-47
2022/09/20 10:16:17;;;;;;;6.97;5.37;;;17.50;99.90;;;;;;6240593;23;20403;-50
2022/09/20 10:18:53;;;;;;;5.10;4.70;;;17.10;99.90;;;;;;6242565;23;20891;-50
2022/09/20 10:21:43;;;;;;;5.50;5.00;;;16.70;99.90;;;;;;6242435;23;20360;-50
2022/09/20 10:24:32;;;;;;;5.63;5.17;;;16.40;99.90;;;;;;6242493;23;20804;-49
2022/09/20 10:27:26;;;;;;;5.80;5.23;;;16.10;1.00;;;;;;6242471;23;20403;-51
2022/09/20 10:30:03;;;;;;;5.30;4.80;;;15.80;99.90;;;;;;6241788;23;20356;-51
2022/09/20 10:32:57;;;;;;;4.73;4.30;;;15.60;1.00;;;;;;6242234;23;20438;-49
2022/09/20 10:35:22;;;;;;;5.10;4.60;;;15.50;1.00;;;;;;6242437;23;20453;-52
2022/09/20 10:38:26;;;;;;;5.77;4.30;;;15.40;1.00;;;;;;6242424;23;20828;-49
2022/09/20 10:44:07;;;;;;;5.23;4.73;;;15.50;16.20;;;;;;6242501;23;20881;-50
2022/09/20 10:47:09;;;;;;;5.10;4.60;;;15.60;99.90;;;;;;6242391;23;20869;-49
2022/09/20 10:49:44;;;;;;;4.33;3.93;;;15.70;1.00;;;;;;6230845;23;20706;-49
2022/09/20 10:52:23;;;;;;;5.43;4.93;;;15.90;1.00;;;;;;6242457;23;20474;-48
2022/09/20 10:55:07;;;;;;;4.30;3.90;;;16.10;99.90;;;;;;6241882;23;20451;-50
2022/09/20 10:57:37;;;;;;;4.60;3.90;;;16.40;1.00;;;;;;6241796;23;20417;-50
2022/09/20 11:00:17;;;;;;;4.00;3.60;;;16.60;1.00;;;;;;6242122;23;20355;-47
2022/09/20 11:03:06;;;;;;;4.00;3.70;;;16.50;99.90;;;;;;6242075;23;20372;-48
2022/09/20 11:05:35;;;;;;;4.30;3.77;;;16.60;1.00;;;;;;6241166;23;20427;-50
2022/09/20 11:08:12;;;;;;;4.10;3.63;;;16.50;45.40;;;;;;6242336;23;20364;-51
2022/09/20 11:10:43;;;;;;;3.90;3.60;;;16.40;1.00;;;;;;6242039;23;20364;-47
2022/09/20 11:13:34;;;;;;;4.23;3.93;;;16.60;1.00;;;;;;6241989;23;20434;-51
2022/09/20 11:16:14;;;;;;;4.97;4.57;;;16.80;1.00;;;;;;6241794;23;20411;-50
2022/09/20 11:18:43;;;;;;;4.80;4.40;;;17.30;99.90;;;;;;6241856;23;20379;-50
2022/09/20 11:21:33;;;;;;;4.67;4.37;;;18.20;1.00;;;;;;6242034;23;20348;-50
2022/09/20 11:24:46;;;;;;;4.77;4.40;;;19.70;99.90;;;;;;6241669;23;20392;-50
2022/09/20 11:27:28;;;;;;;3.93;3.63;;;20.60;99.90;;;;;;6241435;23;20384;-49
2022/09/20 11:30:22;;;;;;;4.60;4.20;;;20.90;1.00;;;;;;6229478;23;20406;-51
2022/09/20 11:33:18;;;;;;;5.00;4.60;;;20.50;1.00;;;;;;6241791;23;20444;-52
2022/09/20 11:35:50;;;;;;;4.37;4.00;;;20.00;1.00;;;;;;6241729;23;20384;-49
2022/09/20 11:38:50;;;;;;;4.30;4.00;;;19.50;1.00;;;;;;6241913;23;20376;-52
2022/09/20 11:41:29;;;;;;;4.03;3.73;;;19.10;1.00;;;;;;6241750;23;20367;-51
2022/09/20 11:44:03;;;;;;;4.43;4.13;;;18.80;99.90;;;;;;6241238;23;20398;-48
2022/09/20 11:46:35;;;;;;;4.17;3.77;;;18.70;10.90;;;;;;6241843;23;20372;-49
2022/09/20 11:49:11;;;;;;;5.00;4.47;;;18.40;99.90;;;;;;6241582;23;20390;-48
2022/09/20 11:51:47;;;;;;;4.87;4.47;;;18.30;99.90;;;;;;6241572;23;20370;-47
2022/09/20 11:54:35;;;;;;;4.63;4.23;;;18.50;99.90;;;;;;6241726;23;20411;-48
2022/09/20 11:57:01;;;;;;;4.60;4.30;;;18.80;99.90;;;;;;6241691;23;20437;-49
2022/09/20 11:59:36;;;;;;;4.43;4.10;;;19.10;99.90;;;;;;6241428;23;20819;-52
2022/09/20 12:02:11;;;;;;;4.07;3.77;;;19.50;33.10;;;;;;6241603;23;20414;-48
2022/09/20 12:04:43;;;;;;;4.43;4.10;;;20.20;1.00;;;;;;6241747;23;21052;-53
2022/09/20 12:07:18;;;;;;;3.23;3.03;;;20.70;1.00;;;;;;6241739;23;20364;-52
2022/09/20 12:09:57;;;;;;;3.73;3.53;;;21.00;1.00;;;;;;6241565;23;20365;-49
2022/09/20 12:12:36;;;;;;;3.03;2.83;;;21.70;1.00;;;;;;6240849;23;20399;-48
2022/09/20 12:15:06;;;;;;;4.40;4.10;;;22.40;1.00;;;;;;6241570;23;20418;-51
2022/09/20 12:17:46;;;;;;;4.87;4.47;;;22.70;99.90;;;;;;6241262;23;20376;-53
2022/09/20 12:20:31;;;;;;;4.63;4.23;;;22.10;99.90;;;;;;6241356;23;20439;-52
2022/09/20 12:23:34;;;;;;;4.93;4.53;;;21.00;99.90;;;;;;6241595;23;20368;-49
2022/09/20 12:26:00;;;;;;;5.47;5.17;;;20.20;1.00;;;;;;6241380;23;20695;-53
2022/09/20 12:28:33;;;;;;;5.10;4.70;;;19.40;1.00;;;;;;6241339;23;20383;-51
2022/09/20 12:31:28;;;;;;;4.03;3.73;;;19.20;1.00;;;;;;6241299;23;20146;-52
2022/09/20 12:34:09;;;;;;;4.40;4.10;;;19.80;1.00;;;;;;6228908;23;20452;-48
2022/09/20 12:36:36;;;;;;;4.50;4.20;;;20.70;1.00;;;;;;6241270;23;20364;-51
2022/09/20 12:39:08;;;;;;;4.50;4.10;;;22.10;1.00;;;;;;6241187;23;20442;-51
2022/09/20 12:42:20;;;;;;;4.20;3.90;;;22.70;99.90;;;;;;6241509;23;20452;-48
2022/09/20 12:44:48;;;;;;;3.83;3.60;;;23.20;99.90;;;;;;6217232;23;20396;-46
2022/09/20 12:47:16;;;;;;;3.90;3.70;;;23.60;99.90;;;;;;6241300;23;20376;-48
2022/09/20 12:52:56;;;;;;;4.37;3.97;;;22.90;99.90;;;;;;6240895;23;20435;-52
2022/09/20 12:55:31;;;;;;;4.40;4.10;;;22.20;99.90;;;;;;6241466;23;20368;-50
2022/09/20 12:58:12;;;;;;;4.50;4.10;;;22.50;99.90;;;;;;6241074;23;20409;-49
2022/09/20 13:01:14;;;;;;;4.20;3.90;;;23.20;99.90;;;;;;6241355;23;21018;-47
2022/09/20 13:03:44;;;;;;;4.67;4.27;;;22.90;99.90;;;;;;6147832;23;20794;-50
2022/09/20 13:06:14;;;;;;;4.63;4.37;;;23.30;99.90;;;;;;6176850;23;20397;-47
2022/09/20 13:08:56;;;;;;;4.73;4.43;;;23.40;99.90;;;;;;6177978;23;20382;-50
2022/09/20 13:11:44;;;;;;;4.30;4.10;;;23.70;99.90;;;;;;6177113;23;20374;-46
2022/09/20 13:14:39;;;;;;;5.97;4.10;;;24.00;99.90;;;;;;6177617;23;20430;-46
2022/09/20 13:17:12;;;;;;;4.67;4.37;;;23.40;99.90;;;;;;6174936;23;20388;-48
2022/09/20 13:19:43;;;;;;;4.43;4.10;;;22.60;99.90;;;;;;6177503;23;20386;-52
2022/09/20 13:22:25;;;;;;;5.70;4.73;;;22.00;99.90;;;;;;6177407;23;20449;-51
2022/09/20 13:24:56;;;;;;;3.63;3.43;;;22.00;99.90;;;;;;6177403;23;20370;-51
2022/09/20 13:27:28;;;;;;;4.40;4.10;;;22.40;99.90;;;;;;6177787;23;20394;-51
2022/09/20 13:29:54;;;;;;;3.73;3.43;;;22.70;99.90;;;;;;6179305;23;20390;-46
2022/09/20 13:32:29;;;;;;;3.90;3.60;;;23.30;99.90;;;;;;6179344;23;20448;-51
2022/09/20 13:35:07;;;;;;;3.57;3.27;;;23.50;99.90;;;;;;6179436;23;20566;-49
2022/09/20 13:37:33;;;;;;;4.13;3.83;;;24.00;99.90;;;;;;6178891;23;20366;-50
2022/09/20 13:39:59;;;;;;;4.47;4.07;;;24.00;99.90;;;;;;6186917;23;20384;-47
2022/09/20 13:42:28;;;;;;;4.17;3.87;;;23.50;99.90;;;;;;6242911;23;20412;-50
2022/09/20 13:44:56;;;;;;;4.03;3.80;;;23.20;99.90;;;;;;6243015;23;20410;-49
2022/09/20 13:47:30;;;;;;;4.50;4.20;;;23.20;99.90;;;;;;6242565;23;20518;-48
2022/09/20 13:50:21;;;;;;;4.20;4.00;;;23.40;99.90;;;;;;6242876;23;20356;-50
2022/09/20 13:52:58;;;;;;;4.23;3.93;;;23.80;99.90;;;;;;6242815;23;20584;-51
2022/09/20 13:55:35;;;;;;;4.80;4.37;;;23.60;99.90;;;;;;6241953;23;20395;-50
2022/09/20 13:58:07;;;;;;;3.67;3.37;;;23.00;99.90;;;;;;6241794;23;20395;-48